Cushing Island, Maine
Current Conditions -  °F | °C
As of 9:51 AM on Saturday 20 Dec 2014 (Local Time) from KPWM Reporting Station
Broken Clouds Broken Clouds  
Wind Chill: 19°   Ceiling: 1600
Heat Index: 28°   Visibility: 10mi
Dew Point: 19°   Wind: 10mph
Humidity: 69%   Direction: 20°NNE
Pressure: 30.34"   Gusts: NA
Location:  43.6801°N, 70.1969°W
Report Text: KPWM 201451Z 02009KT 10SM BKN016 M02/M07 A3034 RMK AO2 SLP275 T10221072 51025
Loading
Personal Weather Stations






























Interactive Weather Map New forecast layout! Learn more

10-Day Weather Forecast

Advertisements
Track Severe Weather on mobile